^^
Station Historical Data
 
Tägliche Summe für September 23, 2017 Einheiten:  Metrisch    Englisch   Beides
« Vorherige(r) Tag
Nächste(r) Tag »
Tägliche Wöchentliche Monatliche Jährliche Custom
  Aktuell: Hoch: Tief: Durchschnitt:
Temperatur: 13.2 °C 15.0 °C 12.4 °C 13.7 °C
Taupunkt: 12.3 °C 13.8 °C 11.3 °C 12.6 °C
Feuchte: 94% 95% 92% 94%
Windgeschwindigkeit: 0.0km/h 3.2km/h 0.0km/h 0.5km/h
Böen: 3.2km/h 9.7km/h - -
WindCalm - - WNW
Luftdruck: 1022.9 hPa 1022.9 hPa 1020.9 hPa -
Regen: 0.0 mm      
Historical Graphs
 
 
Tabelle für September 23, 2017
Zeit Temperatur Taupunkt Luftdruck Wind Windgeschwindigkeit Böen Feuchte Regenrate (Std.) Solarstrahlung Wolken
00:01 15.0 °C 13.7 °C 1020.9 hPa Calm     92% 0.0 mm 0.0 W/m2 BKN
00:06 15.0 °C 13.7 °C 1020.9 hPa Calm     92% 0.0 mm 0.0 W/m2 BKN
00:11 15.0 °C 13.7 °C 1021.6 hPa Calm     92% 0.0 mm 0.0 W/m2 BKN
00:16 15.0 °C 13.7 °C 1021.9 hPa West 1.6 km/h 4.8 km/h 92% 0.0 mm 0.0 W/m2 BKN
00:21 14.9 °C 13.8 °C 1021.9 hPa West 1.6 km/h 4.8 km/h 93% 0.0 mm 0.0 W/m2 BKN
00:26 14.9 °C 13.8 °C 1021.9 hPa Calm   3.2 km/h 93% 0.0 mm 0.0 W/m2 BKN
00:31 14.9 °C 13.8 °C 1021.9 hPa Calm   1.6 km/h 93% 0.0 mm 0.0 W/m2 BKN
00:36 14.9 °C 13.8 °C 1021.9 hPa Calm   1.6 km/h 93% 0.0 mm 0.0 W/m2 BKN
00:46 14.8 °C 13.7 °C 1021.9 hPa Calm     93% 0.0 mm 0.0 W/m2 BKN
00:51 14.8 °C 13.7 °C 1021.9 hPa Calm     93% 0.0 mm 0.0 W/m2 BKN
00:56 14.8 °C 13.7 °C 1021.9 hPa Calm     93% 0.0 mm 0.0 W/m2 BKN
01:01 14.8 °C 13.7 °C 1021.9 hPa West 1.6 km/h 3.2 km/h 93% 0.0 mm 0.0 W/m2 -RA
01:06 14.8 °C 13.7 °C 1021.9 hPa Calm   3.2 km/h 93% 0.0 mm 0.0 W/m2 -RA
01:11 14.8 °C 13.7 °C 1021.9 hPa Calm   3.2 km/h 93% 0.0 mm 0.0 W/m2 -RA
01:16 14.8 °C 13.7 °C 1021.9 hPa West 1.6 km/h 3.2 km/h 93% 0.0 mm 0.0 W/m2 -RA
01:21 14.8 °C 13.7 °C 1021.9 hPa West 1.6 km/h 3.2 km/h 93% 0.0 mm 0.0 W/m2 -RA
01:26 14.7 °C 13.6 °C 1021.9 hPa Calm   4.8 km/h 93% 0.0 mm 0.0 W/m2 -RA
01:31 14.7 °C 13.6 °C 1021.9 hPa Calm   4.8 km/h 93% 0.0 mm 0.0 W/m2 BKN
01:36 14.7 °C 13.6 °C 1021.9 hPa WNW 1.6 km/h 4.8 km/h 93% 0.0 mm 0.0 W/m2 BKN
01:41 14.6 °C 13.5 °C 1021.9 hPa WNW 3.2 km/h 4.8 km/h 93% 0.0 mm 0.0 W/m2 BKN
01:46 14.6 °C 13.5 °C 1021.9 hPa West 1.6 km/h 4.8 km/h 93% 0.0 mm 0.0 W/m2 BKN
01:51 14.5 °C 13.4 °C 1021.9 hPa Calm   3.2 km/h 93% 0.0 mm 0.0 W/m2 BKN
01:56 14.5 °C 13.4 °C 1021.9 hPa Calm   4.8 km/h 93% 0.0 mm 0.0 W/m2 BKN
02:01 14.5 °C 13.4 °C 1021.9 hPa West 1.6 km/h 3.2 km/h 93% 0.0 mm 0.0 W/m2 BKN
02:06 14.4 °C 13.3 °C 1021.9 hPa Calm   3.2 km/h 93% 0.0 mm 0.0 W/m2 BKN
02:11 14.4 °C 13.3 °C 1021.9 hPa Calm   3.2 km/h 93% 0.0 mm 0.0 W/m2 BKN
02:16 14.4 °C 13.3 °C 1021.9 hPa Calm   1.6 km/h 93% 0.0 mm 0.0 W/m2 BKN
02:21 14.3 °C 13.2 °C 1021.9 hPa Calm   3.2 km/h 93% 0.0 mm 0.0 W/m2 BKN
02:26 14.3 °C 13.2 °C 1021.9 hPa Calm   1.6 km/h 93% 0.0 mm 0.0 W/m2 BKN
02:31 14.2 °C 13.1 °C 1021.9 hPa Calm   3.2 km/h 93% 0.0 mm 0.0 W/m2 BKN
02:36 14.2 °C 13.1 °C 1021.9 hPa Calm   1.6 km/h 93% 0.0 mm 0.0 W/m2 BKN
02:41 14.1 °C 13.0 °C 1021.9 hPa Calm   3.2 km/h 93% 0.0 mm 0.0 W/m2 BKN
02:46 14.0 °C 12.7 °C 1021.9 hPa WNW 1.6 km/h 4.8 km/h 92% 0.0 mm 0.0 W/m2 BKN
02:51 14.0 °C 12.9 °C 1021.9 hPa Calm   1.6 km/h 93% 0.0 mm 0.0 W/m2 BKN
02:56 14.0 °C 12.9 °C 1021.9 hPa Calm   3.2 km/h 93% 0.0 mm 0.0 W/m2 BKN
03:01 13.9 °C 12.8 °C 1021.9 hPa West 1.6 km/h 3.2 km/h 93% 0.0 mm 0.0 W/m2 BKN
03:11 13.8 °C 12.7 °C 1021.9 hPa Calm     93% 0.0 mm 0.0 W/m2 BKN
03:16 13.8 °C 12.8 °C 1021.9 hPa Calm   3.2 km/h 94% 0.0 mm 0.0 W/m2 BKN
03:21 13.8 °C 12.7 °C 1021.9 hPa Calm     93% 0.0 mm 0.0 W/m2 BKN
03:26 13.8 °C 12.7 °C 1021.9 hPa Calm     93% 0.0 mm 0.0 W/m2 BKN
03:31 13.7 °C 12.6 °C 1021.9 hPa West 1.6 km/h 3.2 km/h 93% 0.0 mm 0.0 W/m2 BKN
03:36 13.7 °C 12.8 °C 1021.9 hPa West 1.6 km/h 4.8 km/h 94% 0.0 mm 0.0 W/m2 BKN
03:41 13.7 °C 12.8 °C 1021.9 hPa WNW 1.6 km/h 4.8 km/h 94% 0.0 mm 0.0 W/m2 BKN
03:46 13.7 °C 12.8 °C 1021.9 hPa NNW 1.6 km/h 4.8 km/h 94% 0.0 mm 0.0 W/m2 BKN
03:51 13.7 °C 12.8 °C 1021.9 hPa NW 1.6 km/h 9.7 km/h 94% 0.0 mm 0.0 W/m2 BKN
03:56 13.7 °C 12.8 °C 1021.9 hPa NNW 1.6 km/h 8.0 km/h 94% 0.0 mm 0.0 W/m2 BKN
04:01 13.7 °C 12.8 °C 1021.9 hPa NNW 1.6 km/h 8.0 km/h 94% 0.0 mm 0.0 W/m2 BKN
04:06 13.7 °C 12.8 °C 1021.9 hPa West 1.6 km/h 4.8 km/h 94% 0.0 mm 0.0 W/m2 BKN
04:11 13.6 °C 12.7 °C 1021.9 hPa West 3.2 km/h 4.8 km/h 94% 0.0 mm 0.0 W/m2 BKN
04:16 13.6 °C 12.7 °C 1021.9 hPa WSW 1.6 km/h 4.8 km/h 94% 0.0 mm 0.0 W/m2 BKN
04:21 13.6 °C 12.7 °C 1021.9 hPa Calm   4.8 km/h 94% 0.0 mm 0.0 W/m2 BKN
04:26 13.5 °C 12.6 °C 1021.9 hPa NW 1.6 km/h 3.2 km/h 94% 0.0 mm 0.0 W/m2 BKN
04:31 13.5 °C 12.6 °C 1021.9 hPa West 1.6 km/h 8.0 km/h 94% 0.0 mm 0.0 W/m2 BKN
04:36 13.4 °C 12.3 °C 1021.9 hPa WSW 1.6 km/h 4.8 km/h 93% 0.0 mm 0.0 W/m2 BKN
04:41 13.4 °C 12.3 °C 1021.9 hPa Calm   3.2 km/h 93% 0.0 mm 0.0 W/m2 BKN
04:46 13.4 °C 12.4 °C 1021.9 hPa Calm   4.8 km/h 94% 0.0 mm 0.0 W/m2 BKN
04:51 13.4 °C 12.4 °C 1021.9 hPa NW 1.6 km/h 3.2 km/h 94% 0.0 mm 0.0 W/m2 BKN
04:56 13.4 °C 12.4 °C 1022.6 hPa Calm   3.2 km/h 94% 0.0 mm 0.0 W/m2 BKN
05:01 13.4 °C 12.4 °C 1022.9 hPa Calm   1.6 km/h 94% 0.0 mm 0.0 W/m2 BKN
05:06 13.4 °C 12.4 °C 1022.9 hPa NW 1.6 km/h 4.8 km/h 94% 0.0 mm 0.0 W/m2 BKN
05:11 13.4 °C 12.4 °C 1022.2 hPa Calm   4.8 km/h 94% 0.0 mm 0.0 W/m2 BKN
05:21 13.5 °C 12.6 °C 1021.9 hPa Calm   3.2 km/h 94% 0.0 mm 0.0 W/m2 BKN
05:26 13.5 °C 12.6 °C 1022.6 hPa Calm     94% 0.0 mm 0.0 W/m2 BKN
05:31 13.5 °C 12.6 °C 1022.9 hPa Calm   1.6 km/h 94% 0.0 mm 0.0 W/m2 BKN
05:36 13.5 °C 12.6 °C 1022.9 hPa Calm     94% 0.0 mm 0.0 W/m2 BKN
05:41 13.5 °C 12.6 °C 1022.9 hPa Calm     94% 0.0 mm 0.0 W/m2 BKN
05:46 13.5 °C 12.6 °C 1022.9 hPa Calm   3.2 km/h 94% 0.0 mm 0.0 W/m2 BKN
05:51 13.5 °C 12.6 °C 1022.9 hPa Calm     94% 0.0 mm 0.0 W/m2 BKN
05:56 13.6 °C 12.7 °C 1022.2 hPa Calm     94% 0.0 mm 0.0 W/m2 BKN
06:01 13.5 °C 12.6 °C 1021.9 hPa Calm     94% 0.0 mm 0.0 W/m2 BKN
06:11 13.4 °C 12.4 °C 1021.9 hPa Calm   1.6 km/h 94% 0.0 mm 0.0 W/m2 BKN
06:16 13.3 °C 12.4 °C 1021.9 hPa Calm   1.6 km/h 94% 0.0 mm 0.0 W/m2 BKN
06:21 13.3 °C 12.3 °C 1021.9 hPa Calm     94% 0.0 mm 0.0 W/m2 BKN
06:26 13.3 °C 12.3 °C 1021.9 hPa Calm     94% 0.0 mm 0.0 W/m2 BKN
06:31 13.2 °C 12.1 °C 1021.9 hPa Calm     93% 0.0 mm 0.0 W/m2 OVC
06:36 13.1 °C 12.0 °C 1021.9 hPa West 1.6 km/h 3.2 km/h 93% 0.0 mm 0.0 W/m2 OVC
06:41 13.0 °C 11.9 °C 1021.9 hPa Calm   3.2 km/h 93% 0.0 mm 0.0 W/m2 OVC
06:46 13.0 °C 11.9 °C 1021.9 hPa Calm     93% 0.0 mm 0.0 W/m2 OVC
06:51 13.0 °C 12.1 °C 1021.9 hPa Calm     94% 0.0 mm 0.0 W/m2 OVC
06:56 13.0 °C 12.1 °C 1021.9 hPa Calm     94% 0.0 mm 0.0 W/m2 OVC
07:01 12.8 °C 11.7 °C 1021.9 hPa Calm     93% 0.0 mm 0.0 W/m2 BKN
07:11 12.7 °C 11.6 °C 1022.6 hPa Calm     93% 0.0 mm 0.0 W/m2 BKN
07:16 12.7 °C 11.6 °C 1022.9 hPa Calm     93% 0.0 mm 0.0 W/m2 BKN
07:21 12.6 °C 11.4 °C 1022.9 hPa Calm   3.2 km/h 93% 0.0 mm 0.0 W/m2 BKN
07:26 12.5 °C 11.4 °C 1022.9 hPa Calm   3.2 km/h 93% 0.0 mm 2.2 W/m2 BKN
07:31 12.5 °C 11.4 °C 1022.9 hPa Calm   3.2 km/h 93% 0.0 mm 4.7 W/m2 BKN
07:36 12.4 °C 11.3 °C 1022.9 hPa Calm   3.2 km/h 93% 0.0 mm 6.6 W/m2 BKN
07:41 12.5 °C 11.6 °C 1022.9 hPa WNW 1.6 km/h 4.8 km/h 94% 0.0 mm 8.4 W/m2 BKN
07:46 12.5 °C 11.6 °C 1022.9 hPa Calm   6.4 km/h 94% 0.0 mm 11.8 W/m2 BKN
07:51 12.5 °C 11.6 °C 1022.9 hPa West 1.6 km/h 4.8 km/h 94% 0.0 mm 15.7 W/m2 BKN
07:56 12.5 °C 11.6 °C 1022.9 hPa Calm   4.8 km/h 94% 0.0 mm 20.8 W/m2 BKN
08:01 12.6 °C 11.6 °C 1022.9 hPa Calm   4.8 km/h 94% 0.0 mm 25.8 W/m2 BKN
08:06 12.6 °C 11.7 °C 1022.9 hPa Calm     94% 0.0 mm 33.0 W/m2 BKN
08:11 12.6 °C 11.7 °C 1022.9 hPa Calm   1.6 km/h 94% 0.0 mm 36.5 W/m2 BKN
08:16 12.6 °C 11.7 °C 1022.9 hPa West 1.6 km/h 3.2 km/h 94% 0.0 mm 45.6 W/m2 BKN
08:21 12.6 °C 11.7 °C 1022.9 hPa Calm   1.6 km/h 94% 0.0 mm 62.8 W/m2 BKN
08:26 12.7 °C 11.8 °C 1022.9 hPa WNW 1.6 km/h 4.8 km/h 94% 0.0 mm 67.5 W/m2 BKN
08:31 12.8 °C 12.0 °C 1022.9 hPa Calm   3.2 km/h 95% 0.0 mm 70.8 W/m2 BKN
08:36 12.8 °C 12.0 °C 1022.9 hPa Calm   3.2 km/h 95% 0.0 mm 81.8 W/m2 BKN
08:46 12.9 °C 12.1 °C 1022.9 hPa Calm     95% 0.0 mm 102.3 W/m2 BKN
08:51 12.9 °C 12.1 °C 1022.9 hPa Calm     95% 0.0 mm 120.9 W/m2 BKN
08:56 12.9 °C 12.1 °C 1022.9 hPa Calm     95% 0.0 mm 127.3 W/m2 BKN
09:01 13.0 °C 12.2 °C 1022.9 hPa Calm     95% 0.0 mm 128.3 W/m2 BKN
09:06 13.0 °C 12.2 °C 1022.9 hPa Calm     95% 0.0 mm 121.6 W/m2 BKN
09:11 13.1 °C 12.3 °C 1022.9 hPa Calm     95% 0.0 mm 151.4 W/m2 BKN
09:16 13.1 °C 12.3 °C 1022.9 hPa Calm     95% 0.0 mm 167.7 W/m2 BKN
09:21 13.1 °C 12.3 °C 1022.9 hPa Calm   3.2 km/h 95% 0.0 mm 172.5 W/m2 BKN
09:26 13.2 °C 12.3 °C 1022.9 hPa Calm   3.2 km/h 94% 0.0 mm 172.6 W/m2 BKN
41749 Viersen, NRW, D
Compliments of Weather Underground - 1.25 mb